sensor_id;sensor_type;location;lat;lon;timestamp;P1;durP1;ratioP1;P2;durP2;ratioP2
25905;SDS011;13713;52.552;13.204;2023-04-24T00:00:03;34.50;;;26.67;;
25905;SDS011;13713;52.552;13.204;2023-04-24T00:02:34;35.55;;;26.63;;
25905;SDS011;13713;52.552;13.204;2023-04-24T00:05:03;34.28;;;26.88;;
25905;SDS011;13713;52.552;13.204;2023-04-24T00:07:32;34.35;;;27.02;;
25905;SDS011;13713;52.552;13.204;2023-04-24T00:09:59;36.50;;;27.70;;
25905;SDS011;13713;52.552;13.204;2023-04-24T00:12:25;33.80;;;26.70;;
25905;SDS011;13713;52.552;13.204;2023-04-24T00:14:52;36.70;;;28.00;;
25905;SDS011;13713;52.552;13.204;2023-04-24T00:17:18;36.50;;;28.05;;
25905;SDS011;13713;52.552;13.204;2023-04-24T00:19:46;35.00;;;27.75;;
25905;SDS011;13713;52.552;13.204;2023-04-24T00:22:12;33.92;;;26.60;;
25905;SDS011;13713;52.552;13.204;2023-04-24T00:24:40;34.33;;;27.33;;
25905;SDS011;13713;52.552;13.204;2023-04-24T00:27:06;34.45;;;27.15;;
25905;SDS011;13713;52.552;13.204;2023-04-24T00:29:31;37.58;;;29.30;;
25905;SDS011;13713;52.552;13.204;2023-04-24T00:31:57;37.00;;;28.98;;
25905;SDS011;13713;52.552;13.204;2023-04-24T00:34:23;33.88;;;26.80;;
25905;SDS011;13713;52.552;13.204;2023-04-24T00:36:48;36.78;;;28.15;;
25905;SDS011;13713;52.552;13.204;2023-04-24T00:39:20;34.95;;;27.85;;
25905;SDS011;13713;52.552;13.204;2023-04-24T00:41:46;36.90;;;28.58;;
25905;SDS011;13713;52.552;13.204;2023-04-24T00:44:13;34.83;;;26.83;;
25905;SDS011;13713;52.552;13.204;2023-04-24T00:46:40;35.00;;;27.70;;
25905;SDS011;13713;52.552;13.204;2023-04-24T00:49:06;35.13;;;27.75;;
25905;SDS011;13713;52.552;13.204;2023-04-24T00:51:32;34.85;;;27.67;;
25905;SDS011;13713;52.552;13.204;2023-04-24T00:53:58;34.88;;;27.25;;
25905;SDS011;13713;52.552;13.204;2023-04-24T00:56:25;36.97;;;29.20;;
25905;SDS011;13713;52.552;13.204;2023-04-24T00:58:51;35.28;;;28.35;;
25905;SDS011;13713;52.552;13.204;2023-04-24T01:01:17;37.95;;;29.35;;
25905;SDS011;13713;52.552;13.204;2023-04-24T01:03:46;35.10;;;28.08;;
25905;SDS011;13713;52.552;13.204;2023-04-24T01:06:13;36.28;;;28.23;;
25905;SDS011;13713;52.552;13.204;2023-04-24T01:08:40;35.83;;;28.40;;
25905;SDS011;13713;52.552;13.204;2023-04-24T01:11:07;35.70;;;28.02;;
25905;SDS011;13713;52.552;13.204;2023-04-24T01:13:33;38.00;;;29.08;;
25905;SDS011;13713;52.552;13.204;2023-04-24T01:15:59;37.75;;;29.45;;
25905;SDS011;13713;52.552;13.204;2023-04-24T01:18:26;36.22;;;28.73;;
25905;SDS011;13713;52.552;13.204;2023-04-24T01:20:57;36.85;;;28.73;;
25905;SDS011;13713;52.552;13.204;2023-04-24T01:23:23;37.67;;;29.17;;
25905;SDS011;13713;52.552;13.204;2023-04-24T01:25:50;37.28;;;29.63;;
25905;SDS011;13713;52.552;13.204;2023-04-24T01:28:17;38.00;;;29.33;;
25905;SDS011;13713;52.552;13.204;2023-04-24T01:30:43;36.72;;;28.92;;
25905;SDS011;13713;52.552;13.204;2023-04-24T01:33:09;37.42;;;29.08;;
25905;SDS011;13713;52.552;13.204;2023-04-24T01:35:35;36.90;;;28.42;;
25905;SDS011;13713;52.552;13.204;2023-04-24T01:38:02;38.50;;;29.65;;
25905;SDS011;13713;52.552;13.204;2023-04-24T01:40:28;37.47;;;28.85;;
25905;SDS011;13713;52.552;13.204;2023-04-24T01:42:57;36.63;;;28.45;;
25905;SDS011;13713;52.552;13.204;2023-04-24T01:45:23;36.30;;;28.63;;
25905;SDS011;13713;52.552;13.204;2023-04-24T01:47:49;39.00;;;30.38;;
25905;SDS011;13713;52.552;13.204;2023-04-24T01:50:16;38.15;;;29.80;;
25905;SDS011;13713;52.552;13.204;2023-04-24T01:52:42;35.65;;;28.80;;
25905;SDS011;13713;52.552;13.204;2023-04-24T01:55:08;34.80;;;27.73;;
25905;SDS011;13713;52.552;13.204;2023-04-24T01:57:35;37.88;;;30.77;;
25905;SDS011;13713;52.552;13.204;2023-04-24T02:00:01;38.75;;;31.23;;
25905;SDS011;13713;52.552;13.204;2023-04-24T02:02:39;39.75;;;30.25;;
25905;SDS011;13713;52.552;13.204;2023-04-24T02:05:05;40.47;;;31.20;;
25905;SDS011;13713;52.552;13.204;2023-04-24T02:07:35;39.03;;;31.02;;
25905;SDS011;13713;52.552;13.204;2023-04-24T02:10:00;39.85;;;30.77;;
25905;SDS011;13713;52.552;13.204;2023-04-24T02:12:26;40.92;;;31.40;;
25905;SDS011;13713;52.552;13.204;2023-04-24T02:14:52;40.65;;;31.48;;
25905;SDS011;13713;52.552;13.204;2023-04-24T02:17:18;37.80;;;30.10;;
25905;SDS011;13713;52.552;13.204;2023-04-24T02:19:44;40.08;;;32.03;;
25905;SDS011;13713;52.552;13.204;2023-04-24T02:22:10;38.05;;;30.27;;
25905;SDS011;13713;52.552;13.204;2023-04-24T02:24:36;40.25;;;32.10;;
25905;SDS011;13713;52.552;13.204;2023-04-24T02:27:02;41.28;;;31.67;;
25905;SDS011;13713;52.552;13.204;2023-04-24T02:29:28;42.25;;;31.98;;
25905;SDS011;13713;52.552;13.204;2023-04-24T02:31:54;41.20;;;32.08;;
25905;SDS011;13713;52.552;13.204;2023-04-24T02:34:19;40.83;;;32.10;;
25905;SDS011;13713;52.552;13.204;2023-04-24T02:36:46;41.00;;;32.70;;
25905;SDS011;13713;52.552;13.204;2023-04-24T02:39:13;39.60;;;31.92;;
25905;SDS011;13713;52.552;13.204;2023-04-24T02:41:41;42.78;;;32.92;;
25905;SDS011;13713;52.552;13.204;2023-04-24T02:44:10;39.40;;;32.08;;
25905;SDS011;13713;52.552;13.204;2023-04-24T02:46:35;40.15;;;32.67;;
25905;SDS011;13713;52.552;13.204;2023-04-24T02:49:01;43.08;;;33.80;;
25905;SDS011;13713;52.552;13.204;2023-04-24T02:51:28;41.08;;;31.95;;
25905;SDS011;13713;52.552;13.204;2023-04-24T02:53:53;43.47;;;33.75;;
25905;SDS011;13713;52.552;13.204;2023-04-24T02:56:19;43.45;;;33.78;;
25905;SDS011;13713;52.552;13.204;2023-04-24T02:58:45;41.88;;;33.17;;
25905;SDS011;13713;52.552;13.204;2023-04-24T03:01:10;43.30;;;33.25;;
25905;SDS011;13713;52.552;13.204;2023-04-24T03:03:37;43.80;;;34.83;;
25905;SDS011;13713;52.552;13.204;2023-04-24T03:06:03;43.50;;;33.75;;
25905;SDS011;13713;52.552;13.204;2023-04-24T03:08:31;42.58;;;32.55;;
25905;SDS011;13713;52.552;13.204;2023-04-24T03:10:57;43.42;;;33.28;;
25905;SDS011;13713;52.552;13.204;2023-04-24T03:13:23;43.35;;;33.28;;
25905;SDS011;13713;52.552;13.204;2023-04-24T03:15:49;41.63;;;31.95;;
25905;SDS011;13713;52.552;13.204;2023-04-24T03:18:14;45.08;;;35.42;;
25905;SDS011;13713;52.552;13.204;2023-04-24T03:20:41;42.50;;;33.83;;
25905;SDS011;13713;52.552;13.204;2023-04-24T03:23:07;47.50;;;35.92;;
25905;SDS011;13713;52.552;13.204;2023-04-24T03:25:34;43.88;;;33.83;;
25905;SDS011;13713;52.552;13.204;2023-04-24T03:28:00;44.30;;;34.28;;
25905;SDS011;13713;52.552;13.204;2023-04-24T03:30:33;43.65;;;33.17;;
25905;SDS011;13713;52.552;13.204;2023-04-24T03:33:00;43.72;;;33.53;;
25905;SDS011;13713;52.552;13.204;2023-04-24T03:35:29;41.58;;;32.70;;
25905;SDS011;13713;52.552;13.204;2023-04-24T03:37:59;42.15;;;32.80;;
25905;SDS011;13713;52.552;13.204;2023-04-24T03:40:43;40.55;;;31.65;;
25905;SDS011;13713;52.552;13.204;2023-04-24T03:43:34;42.40;;;31.58;;
25905;SDS011;13713;52.552;13.204;2023-04-24T03:46:01;38.58;;;30.38;;
25905;SDS011;13713;52.552;13.204;2023-04-24T03:48:28;39.53;;;30.77;;
25905;SDS011;13713;52.552;13.204;2023-04-24T03:50:54;40.38;;;29.85;;
25905;SDS011;13713;52.552;13.204;2023-04-24T03:53:20;37.47;;;29.77;;
25905;SDS011;13713;52.552;13.204;2023-04-24T03:55:47;35.42;;;29.20;;
25905;SDS011;13713;52.552;13.204;2023-04-24T03:58:13;38.92;;;30.25;;
25905;SDS011;13713;52.552;13.204;2023-04-24T04:00:40;34.58;;;28.35;;
25905;SDS011;13713;52.552;13.204;2023-04-24T04:03:31;34.80;;;28.48;;
25905;SDS011;13713;52.552;13.204;2023-04-24T04:05:57;34.25;;;27.95;;
25905;SDS011;13713;52.552;13.204;2023-04-24T04:08:23;35.60;;;27.70;;
25905;SDS011;13713;52.552;13.204;2023-04-24T04:10:49;33.70;;;27.52;;
25905;SDS011;13713;52.552;13.204;2023-04-24T04:13:14;33.45;;;26.48;;
25905;SDS011;13713;52.552;13.204;2023-04-24T04:15:40;34.47;;;27.08;;
25905;SDS011;13713;52.552;13.204;2023-04-24T04:18:06;33.10;;;27.27;;
25905;SDS011;13713;52.552;13.204;2023-04-24T04:20:32;33.78;;;26.85;;
25905;SDS011;13713;52.552;13.204;2023-04-24T04:22:57;31.67;;;25.48;;
25905;SDS011;13713;52.552;13.204;2023-04-24T04:25:34;31.73;;;24.88;;
25905;SDS011;13713;52.552;13.204;2023-04-24T04:28:00;30.83;;;25.13;;
25905;SDS011;13713;52.552;13.204;2023-04-24T04:30:27;31.60;;;25.02;;
25905;SDS011;13713;52.552;13.204;2023-04-24T04:33:00;33.30;;;26.45;;
25905;SDS011;13713;52.552;13.204;2023-04-24T04:35:26;33.40;;;26.88;;
25905;SDS011;13713;52.552;13.204;2023-04-24T04:37:52;35.67;;;27.77;;
25905;SDS011;13713;52.552;13.204;2023-04-24T04:40:37;32.08;;;24.98;;
25905;SDS011;13713;52.552;13.204;2023-04-24T04:43:04;32.17;;;25.70;;
25905;SDS011;13713;52.552;13.204;2023-04-24T04:45:40;32.45;;;24.98;;
25905;SDS011;13713;52.552;13.204;2023-04-24T04:48:22;34.13;;;26.38;;
25905;SDS011;13713;52.552;13.204;2023-04-24T04:50:48;36.10;;;26.88;;
25905;SDS011;13713;52.552;13.204;2023-04-24T04:53:15;37.88;;;29.23;;
25905;SDS011;13713;52.552;13.204;2023-04-24T04:55:41;37.08;;;26.25;;
25905;SDS011;13713;52.552;13.204;2023-04-24T04:58:13;43.97;;;29.13;;
25905;SDS011;13713;52.552;13.204;2023-04-24T05:00:39;40.15;;;27.55;;
25905;SDS011;13713;52.552;13.204;2023-04-24T05:03:24;39.00;;;27.05;;
25905;SDS011;13713;52.552;13.204;2023-04-24T05:06:03;36.40;;;26.85;;
25905;SDS011;13713;52.552;13.204;2023-04-24T05:08:33;38.08;;;27.27;;
25905;SDS011;13713;52.552;13.204;2023-04-24T05:10:59;34.50;;;25.73;;
25905;SDS011;13713;52.552;13.204;2023-04-24T05:13:27;38.72;;;26.27;;
25905;SDS011;13713;52.552;13.204;2023-04-24T05:15:53;35.55;;;27.30;;
25905;SDS011;13713;52.552;13.204;2023-04-24T05:18:19;35.15;;;25.70;;
25905;SDS011;13713;52.552;13.204;2023-04-24T05:20:45;62.08;;;27.45;;
25905;SDS011;13713;52.552;13.204;2023-04-24T05:23:12;38.85;;;25.40;;
25905;SDS011;13713;52.552;13.204;2023-04-24T05:25:40;36.45;;;25.95;;
25905;SDS011;13713;52.552;13.204;2023-04-24T05:28:10;40.15;;;25.90;;
25905;SDS011;13713;52.552;13.204;2023-04-24T05:30:37;32.88;;;25.70;;
25905;SDS011;13713;52.552;13.204;2023-04-24T05:33:03;39.25;;;25.67;;
25905;SDS011;13713;52.552;13.204;2023-04-24T05:35:31;60.28;;;32.58;;
25905;SDS011;13713;52.552;13.204;2023-04-24T05:37:57;57.00;;;31.17;;
25905;SDS011;13713;52.552;13.204;2023-04-24T05:40:23;41.05;;;26.08;;
25905;SDS011;13713;52.552;13.204;2023-04-24T05:42:48;52.58;;;27.92;;
25905;SDS011;13713;52.552;13.204;2023-04-24T05:45:14;64.38;;;30.52;;
25905;SDS011;13713;52.552;13.204;2023-04-24T05:47:42;70.25;;;36.20;;
25905;SDS011;13713;52.552;13.204;2023-04-24T05:50:11;75.43;;;36.92;;
25905;SDS011;13713;52.552;13.204;2023-04-24T05:52:37;93.50;;;43.72;;
25905;SDS011;13713;52.552;13.204;2023-04-24T05:55:10;112.43;;;54.15;;
25905;SDS011;13713;52.552;13.204;2023-04-24T05:57:38;139.30;;;59.88;;
25905;SDS011;13713;52.552;13.204;2023-04-24T06:00:04;119.25;;;55.42;;
25905;SDS011;13713;52.552;13.204;2023-04-24T06:02:38;152.85;;;64.80;;
25905;SDS011;13713;52.552;13.204;2023-04-24T06:05:06;168.20;;;72.18;;
25905;SDS011;13713;52.552;13.204;2023-04-24T06:07:33;133.20;;;64.10;;
25905;SDS011;13713;52.552;13.204;2023-04-24T06:10:02;165.60;;;77.55;;
25905;SDS011;13713;52.552;13.204;2023-04-24T06:12:33;154.05;;;67.50;;
25905;SDS011;13713;52.552;13.204;2023-04-24T06:15:05;90.00;;;45.33;;
25905;SDS011;13713;52.552;13.204;2023-04-24T06:17:58;98.70;;;45.40;;
25905;SDS011;13713;52.552;13.204;2023-04-24T06:20:25;91.13;;;43.83;;
25905;SDS011;13713;52.552;13.204;2023-04-24T06:22:50;89.10;;;42.17;;
25905;SDS011;13713;52.552;13.204;2023-04-24T06:25:16;74.95;;;34.60;;
25905;SDS011;13713;52.552;13.204;2023-04-24T06:27:42;213.50;;;117.63;;
25905;SDS011;13713;52.552;13.204;2023-04-24T06:30:08;98.03;;;51.75;;
25905;SDS011;13713;52.552;13.204;2023-04-24T06:32:34;60.35;;;29.30;;
25905;SDS011;13713;52.552;13.204;2023-04-24T06:34:59;48.78;;;25.42;;
25905;SDS011;13713;52.552;13.204;2023-04-24T06:37:26;60.03;;;30.83;;
25905;SDS011;13713;52.552;13.204;2023-04-24T06:39:52;40.65;;;21.63;;
25905;SDS011;13713;52.552;13.204;2023-04-24T06:42:17;78.70;;;41.30;;
25905;SDS011;13713;52.552;13.204;2023-04-24T06:44:46;119.30;;;65.78;;
25905;SDS011;13713;52.552;13.204;2023-04-24T06:47:11;82.32;;;42.20;;
25905;SDS011;13713;52.552;13.204;2023-04-24T06:49:40;36.10;;;21.20;;
25905;SDS011;13713;52.552;13.204;2023-04-24T06:52:06;68.45;;;34.88;;
25905;SDS011;13713;52.552;13.204;2023-04-24T06:54:32;52.70;;;27.75;;
25905;SDS011;13713;52.552;13.204;2023-04-24T06:56:58;45.10;;;25.75;;
25905;SDS011;13713;52.552;13.204;2023-04-24T06:59:25;56.63;;;27.50;;
25905;SDS011;13713;52.552;13.204;2023-04-24T07:01:53;48.25;;;24.67;;
25905;SDS011;13713;52.552;13.204;2023-04-24T07:04:20;30.63;;;17.58;;
25905;SDS011;13713;52.552;13.204;2023-04-24T07:06:46;70.15;;;26.80;;
25905;SDS011;13713;52.552;13.204;2023-04-24T07:09:14;42.00;;;19.80;;
25905;SDS011;13713;52.552;13.204;2023-04-24T07:11:41;32.28;;;15.50;;
25905;SDS011;13713;52.552;13.204;2023-04-24T07:14:07;28.42;;;13.43;;
25905;SDS011;13713;52.552;13.204;2023-04-24T07:16:33;23.67;;;11.18;;
25905;SDS011;13713;52.552;13.204;2023-04-24T07:18:59;18.70;;;10.20;;
25905;SDS011;13713;52.552;13.204;2023-04-24T07:21:25;29.75;;;12.48;;
25905;SDS011;13713;52.552;13.204;2023-04-24T07:23:52;19.27;;;10.98;;
25905;SDS011;13713;52.552;13.204;2023-04-24T07:26:18;26.40;;;13.65;;
25905;SDS011;13713;52.552;13.204;2023-04-24T07:28:44;26.73;;;13.60;;
25905;SDS011;13713;52.552;13.204;2023-04-24T07:31:10;72.80;;;39.83;;
25905;SDS011;13713;52.552;13.204;2023-04-24T07:33:36;68.55;;;38.13;;
25905;SDS011;13713;52.552;13.204;2023-04-24T07:36:02;45.33;;;23.13;;
25905;SDS011;13713;52.552;13.204;2023-04-24T07:38:29;32.60;;;16.77;;
25905;SDS011;13713;52.552;13.204;2023-04-24T07:40:56;25.38;;;12.68;;
25905;SDS011;13713;52.552;13.204;2023-04-24T07:43:21;28.55;;;14.43;;
25905;SDS011;13713;52.552;13.204;2023-04-24T07:45:48;27.83;;;13.32;;
25905;SDS011;13713;52.552;13.204;2023-04-24T07:48:15;27.90;;;11.90;;
25905;SDS011;13713;52.552;13.204;2023-04-24T07:50:43;31.30;;;13.35;;
25905;SDS011;13713;52.552;13.204;2023-04-24T07:53:09;31.63;;;13.55;;
25905;SDS011;13713;52.552;13.204;2023-04-24T07:55:35;33.05;;;13.98;;
25905;SDS011;13713;52.552;13.204;2023-04-24T07:58:01;40.10;;;17.75;;
25905;SDS011;13713;52.552;13.204;2023-04-24T08:00:27;62.00;;;24.65;;
25905;SDS011;13713;52.552;13.204;2023-04-24T08:02:52;49.13;;;19.65;;
25905;SDS011;13713;52.552;13.204;2023-04-24T08:05:18;129.05;;;71.05;;
25905;SDS011;13713;52.552;13.204;2023-04-24T08:07:45;94.85;;;44.00;;
25905;SDS011;13713;52.552;13.204;2023-04-24T08:10:14;66.57;;;30.95;;
25905;SDS011;13713;52.552;13.204;2023-04-24T08:12:40;47.55;;;20.77;;
25905;SDS011;13713;52.552;13.204;2023-04-24T08:15:06;48.80;;;20.80;;
25905;SDS011;13713;52.552;13.204;2023-04-24T08:17:33;38.65;;;18.20;;
25905;SDS011;13713;52.552;13.204;2023-04-24T08:20:04;54.58;;;21.98;;
25905;SDS011;13713;52.552;13.204;2023-04-24T08:22:31;54.17;;;24.00;;
25905;SDS011;13713;52.552;13.204;2023-04-24T08:24:57;46.65;;;19.75;;
25905;SDS011;13713;52.552;13.204;2023-04-24T08:27:25;64.22;;;26.55;;
25905;SDS011;13713;52.552;13.204;2023-04-24T08:29:52;46.00;;;20.65;;
25905;SDS011;13713;52.552;13.204;2023-04-24T08:32:19;54.30;;;23.23;;
25905;SDS011;13713;52.552;13.204;2023-04-24T08:34:45;66.45;;;23.85;;
25905;SDS011;13713;52.552;13.204;2023-04-24T08:37:11;95.38;;;37.55;;
25905;SDS011;13713;52.552;13.204;2023-04-24T08:39:37;105.95;;;54.67;;
25905;SDS011;13713;52.552;13.204;2023-04-24T08:42:03;83.25;;;33.85;;
25905;SDS011;13713;52.552;13.204;2023-04-24T08:44:33;87.10;;;36.35;;
25905;SDS011;13713;52.552;13.204;2023-04-24T08:47:03;79.03;;;32.90;;
25905;SDS011;13713;52.552;13.204;2023-04-24T08:49:30;86.35;;;37.88;;
25905;SDS011;13713;52.552;13.204;2023-04-24T08:51:56;79.35;;;33.35;;
25905;SDS011;13713;52.552;13.204;2023-04-24T08:54:22;90.85;;;36.97;;
25905;SDS011;13713;52.552;13.204;2023-04-24T08:56:49;83.85;;;31.33;;
25905;SDS011;13713;52.552;13.204;2023-04-24T08:59:17;67.13;;;25.88;;
25905;SDS011;13713;52.552;13.204;2023-04-24T09:01:43;95.35;;;26.30;;
25905;SDS011;13713;52.552;13.204;2023-04-24T09:04:11;197.02;;;52.88;;
25905;SDS011;13713;52.552;13.204;2023-04-24T09:06:40;144.45;;;64.47;;
25905;SDS011;13713;52.552;13.204;2023-04-24T09:09:06;111.90;;;40.83;;
25905;SDS011;13713;52.552;13.204;2023-04-24T09:11:33;115.38;;;39.40;;
25905;SDS011;13713;52.552;13.204;2023-04-24T09:13:59;116.75;;;35.85;;
25905;SDS011;13713;52.552;13.204;2023-04-24T09:16:26;110.00;;;35.55;;
25905;SDS011;13713;52.552;13.204;2023-04-24T09:18:52;126.65;;;39.70;;
25905;SDS011;13713;52.552;13.204;2023-04-24T09:21:20;110.50;;;32.30;;
25905;SDS011;13713;52.552;13.204;2023-04-24T09:23:47;146.85;;;59.25;;
25905;SDS011;13713;52.552;13.204;2023-04-24T09:26:24;156.77;;;69.25;;
25905;SDS011;13713;52.552;13.204;2023-04-24T09:28:50;169.52;;;62.88;;
25905;SDS011;13713;52.552;13.204;2023-04-24T09:31:16;167.73;;;60.85;;
25905;SDS011;13713;52.552;13.204;2023-04-24T09:34:00;103.30;;;38.97;;
25905;SDS011;13713;52.552;13.204;2023-04-24T09:36:32;116.18;;;40.58;;
25905;SDS011;13713;52.552;13.204;2023-04-24T09:39:04;120.30;;;46.42;;
25905;SDS011;13713;52.552;13.204;2023-04-24T09:41:35;126.13;;;49.95;;
25905;SDS011;13713;52.552;13.204;2023-04-24T09:44:12;138.40;;;50.42;;
25905;SDS011;13713;52.552;13.204;2023-04-24T09:46:48;126.43;;;48.72;;
25905;SDS011;13713;52.552;13.204;2023-04-24T09:49:26;92.32;;;34.63;;
25905;SDS011;13713;52.552;13.204;2023-04-24T09:52:06;98.80;;;36.67;;
25905;SDS011;13713;52.552;13.204;2023-04-24T09:54:32;211.93;;;78.70;;
25905;SDS011;13713;52.552;13.204;2023-04-24T09:56:58;101.75;;;39.95;;
25905;SDS011;13713;52.552;13.204;2023-04-24T09:59:25;96.97;;;37.00;;
25905;SDS011;13713;52.552;13.204;2023-04-24T10:01:51;174.40;;;67.10;;
25905;SDS011;13713;52.552;13.204;2023-04-24T10:04:27;123.35;;;52.13;;
25905;SDS011;13713;52.552;13.204;2023-04-24T10:06:54;125.40;;;50.58;;
25905;SDS011;13713;52.552;13.204;2023-04-24T10:09:22;98.72;;;38.17;;
25905;SDS011;13713;52.552;13.204;2023-04-24T10:11:52;114.80;;;47.15;;
25905;SDS011;13713;52.552;13.204;2023-04-24T10:14:24;112.07;;;55.88;;
25905;SDS011;13713;52.552;13.204;2023-04-24T10:16:53;157.15;;;68.07;;
25905;SDS011;13713;52.552;13.204;2023-04-24T10:19:19;198.07;;;100.95;;
25905;SDS011;13713;52.552;13.204;2023-04-24T10:21:46;103.13;;;47.78;;
25905;SDS011;13713;52.552;13.204;2023-04-24T10:24:15;117.57;;;51.53;;
25905;SDS011;13713;52.552;13.204;2023-04-24T10:26:42;170.85;;;68.95;;
25905;SDS011;13713;52.552;13.204;2023-04-24T10:29:13;99.75;;;46.67;;
25905;SDS011;13713;52.552;13.204;2023-04-24T10:31:40;177.60;;;71.97;;
25905;SDS011;13713;52.552;13.204;2023-04-24T10:34:07;146.65;;;58.55;;
25905;SDS011;13713;52.552;13.204;2023-04-24T10:36:35;129.85;;;50.50;;
25905;SDS011;13713;52.552;13.204;2023-04-24T10:41:33;100.22;;;42.05;;
25905;SDS011;13713;52.552;13.204;2023-04-24T10:46:34;205.43;;;83.82;;
25905;SDS011;13713;52.552;13.204;2023-04-24T10:49:03;143.52;;;64.13;;
25905;SDS011;13713;52.552;13.204;2023-04-24T10:51:45;94.85;;;41.70;;
25905;SDS011;13713;52.552;13.204;2023-04-24T10:54:21;128.23;;;54.42;;
25905;SDS011;13713;52.552;13.204;2023-04-24T10:56:51;108.95;;;44.42;;
25905;SDS011;13713;52.552;13.204;2023-04-24T10:59:27;128.32;;;50.35;;
25905;SDS011;13713;52.552;13.204;2023-04-24T11:01:59;106.35;;;37.85;;
25905;SDS011;13713;52.552;13.204;2023-04-24T11:04:29;123.43;;;46.38;;
25905;SDS011;13713;52.552;13.204;2023-04-24T11:06:56;188.38;;;73.07;;
25905;SDS011;13713;52.552;13.204;2023-04-24T11:09:22;158.93;;;64.47;;
25905;SDS011;13713;52.552;13.204;2023-04-24T11:12:05;130.55;;;53.70;;
25905;SDS011;13713;52.552;13.204;2023-04-24T11:17:28;115.30;;;50.80;;
25905;SDS011;13713;52.552;13.204;2023-04-24T11:20:06;97.65;;;41.58;;
25905;SDS011;13713;52.552;13.204;2023-04-24T11:22:34;86.75;;;37.30;;
25905;SDS011;13713;52.552;13.204;2023-04-24T11:25:01;88.07;;;34.05;;
25905;SDS011;13713;52.552;13.204;2023-04-24T11:27:31;78.85;;;31.45;;
25905;SDS011;13713;52.552;13.204;2023-04-24T11:34:55;59.47;;;25.15;;
25905;SDS011;13713;52.552;13.204;2023-04-24T11:37:26;73.00;;;29.85;;
25905;SDS011;13713;52.552;13.204;2023-04-24T11:39:53;114.25;;;46.08;;
25905;SDS011;13713;52.552;13.204;2023-04-24T11:42:21;94.93;;;35.75;;
25905;SDS011;13713;52.552;13.204;2023-04-24T11:44:48;160.25;;;69.15;;
25905;SDS011;13713;52.552;13.204;2023-04-24T11:47:15;118.72;;;52.22;;
25905;SDS011;13713;52.552;13.204;2023-04-24T11:49:41;121.90;;;44.35;;
25905;SDS011;13713;52.552;13.204;2023-04-24T11:52:06;81.28;;;33.55;;
25905;SDS011;13713;52.552;13.204;2023-04-24T11:54:32;107.63;;;40.80;;
25905;SDS011;13713;52.552;13.204;2023-04-24T11:56:58;88.25;;;33.53;;
25905;SDS011;13713;52.552;13.204;2023-04-24T11:59:24;128.02;;;48.15;;
25905;SDS011;13713;52.552;13.204;2023-04-24T12:01:50;78.88;;;34.03;;
25905;SDS011;13713;52.552;13.204;2023-04-24T12:04:17;132.07;;;48.55;;
25905;SDS011;13713;52.552;13.204;2023-04-24T12:06:58;141.60;;;53.10;;
25905;SDS011;13713;52.552;13.204;2023-04-24T12:09:25;135.52;;;49.72;;
25905;SDS011;13713;52.552;13.204;2023-04-24T12:11:54;216.55;;;93.50;;
25905;SDS011;13713;52.552;13.204;2023-04-24T12:14:23;183.30;;;70.13;;
25905;SDS011;13713;52.552;13.204;2023-04-24T12:16:52;164.88;;;60.28;;
25905;SDS011;13713;52.552;13.204;2023-04-24T12:19:21;163.85;;;57.88;;
25905;SDS011;13713;52.552;13.204;2023-04-24T12:22:01;157.95;;;54.38;;
25905;SDS011;13713;52.552;13.204;2023-04-24T12:24:28;89.93;;;32.07;;
25905;SDS011;13713;52.552;13.204;2023-04-24T12:26:55;98.70;;;37.95;;
25905;SDS011;13713;52.552;13.204;2023-04-24T12:29:22;92.97;;;35.15;;
25905;SDS011;13713;52.552;13.204;2023-04-24T12:31:48;105.85;;;39.20;;
25905;SDS011;13713;52.552;13.204;2023-04-24T12:34:21;108.63;;;44.53;;
25905;SDS011;13713;52.552;13.204;2023-04-24T12:36:48;107.50;;;49.42;;
25905;SDS011;13713;52.552;13.204;2023-04-24T12:39:18;97.30;;;40.03;;
25905;SDS011;13713;52.552;13.204;2023-04-24T12:41:57;131.27;;;65.65;;
25905;SDS011;13713;52.552;13.204;2023-04-24T12:44:31;186.75;;;91.10;;
25905;SDS011;13713;52.552;13.204;2023-04-24T12:46:59;83.47;;;35.15;;
25905;SDS011;13713;52.552;13.204;2023-04-24T12:49:25;82.05;;;34.45;;
25905;SDS011;13713;52.552;13.204;2023-04-24T12:51:51;72.50;;;29.02;;
25905;SDS011;13713;52.552;13.204;2023-04-24T12:54:17;110.70;;;47.05;;
25905;SDS011;13713;52.552;13.204;2023-04-24T12:56:42;92.72;;;40.53;;
25905;SDS011;13713;52.552;13.204;2023-04-24T12:59:08;77.68;;;32.88;;
25905;SDS011;13713;52.552;13.204;2023-04-24T13:01:33;78.82;;;32.20;;
25905;SDS011;13713;52.552;13.204;2023-04-24T13:03:59;76.25;;;32.40;;
25905;SDS011;13713;52.552;13.204;2023-04-24T13:06:25;66.18;;;26.23;;
25905;SDS011;13713;52.552;13.204;2023-04-24T13:08:51;66.78;;;25.92;;
25905;SDS011;13713;52.552;13.204;2023-04-24T13:11:17;66.18;;;25.80;;
25905;SDS011;13713;52.552;13.204;2023-04-24T13:13:43;82.03;;;27.80;;
25905;SDS011;13713;52.552;13.204;2023-04-24T13:16:09;112.95;;;51.53;;
25905;SDS011;13713;52.552;13.204;2023-04-24T13:18:34;158.07;;;72.90;;
25905;SDS011;13713;52.552;13.204;2023-04-24T13:21:00;89.85;;;35.33;;
25905;SDS011;13713;52.552;13.204;2023-04-24T13:23:26;74.85;;;30.25;;
25905;SDS011;13713;52.552;13.204;2023-04-24T13:25:53;74.05;;;28.80;;
25905;SDS011;13713;52.552;13.204;2023-04-24T13:28:22;94.35;;;35.75;;
25905;SDS011;13713;52.552;13.204;2023-04-24T13:30:48;90.10;;;34.78;;
25905;SDS011;13713;52.552;13.204;2023-04-24T13:33:14;111.68;;;36.60;;
25905;SDS011;13713;52.552;13.204;2023-04-24T13:35:41;72.53;;;28.23;;
25905;SDS011;13713;52.552;13.204;2023-04-24T13:38:06;99.50;;;36.17;;
25905;SDS011;13713;52.552;13.204;2023-04-24T13:40:32;126.95;;;57.28;;
25905;SDS011;13713;52.552;13.204;2023-04-24T13:42:58;118.43;;;42.80;;
25905;SDS011;13713;52.552;13.204;2023-04-24T13:45:23;91.80;;;35.40;;
25905;SDS011;13713;52.552;13.204;2023-04-24T13:47:49;71.72;;;28.17;;
25905;SDS011;13713;52.552;13.204;2023-04-24T13:50:15;80.90;;;32.67;;
25905;SDS011;13713;52.552;13.204;2023-04-24T13:52:41;105.43;;;37.33;;
25905;SDS011;13713;52.552;13.204;2023-04-24T13:55:06;90.15;;;34.47;;
25905;SDS011;13713;52.552;13.204;2023-04-24T13:57:32;134.98;;;52.60;;
25905;SDS011;13713;52.552;13.204;2023-04-24T13:59:58;132.27;;;48.97;;
25905;SDS011;13713;52.552;13.204;2023-04-24T14:02:32;107.70;;;40.08;;
25905;SDS011;13713;52.552;13.204;2023-04-24T14:04:57;127.90;;;48.70;;
25905;SDS011;13713;52.552;13.204;2023-04-24T14:07:23;120.88;;;43.97;;
25905;SDS011;13713;52.552;13.204;2023-04-24T14:09:49;103.40;;;41.55;;
25905;SDS011;13713;52.552;13.204;2023-04-24T14:12:15;116.22;;;42.22;;
25905;SDS011;13713;52.552;13.204;2023-04-24T14:14:44;154.50;;;63.00;;
25905;SDS011;13713;52.552;13.204;2023-04-24T14:17:11;146.40;;;59.65;;
25905;SDS011;13713;52.552;13.204;2023-04-24T14:19:36;169.95;;;81.65;;
25905;SDS011;13713;52.552;13.204;2023-04-24T14:22:02;135.75;;;56.35;;